TGW450 WSSS-WMKK
Flight info
| Callsign | TGW450 |
|---|---|
| Flight time | N/A |
| Altitude | 24000 |
| Route | MASBO3A MASBO A457 GUPTA GUPTA1JXSULDIXILS/33 |
| Aircraft | A320/M-SDE3FGHIRWY/LB1 |
Departure
| Time | N/A |
|---|---|
| Airport | Singapore Changi Airport (WSSS) |
Arrival
| Time | 2026-04-30 12:35 |
|---|---|
| Airport | Kuala Lumpur International Airport (WMKK) |
| Time | Latitude | Longitude | Altitude | Speed | Heading |
|---|---|---|---|---|---|
| 2026-04-30 12:21 | 2.24030 | 102.36279 | 11959 ft | 332 kts | 295° |
| 2026-04-30 12:21 | 2.24938 | 102.34141 | 11548 ft | 332 kts | 295° |
| 2026-04-30 12:21 | 2.25831 | 102.32043 | 11139 ft | 331 kts | 295° |
| 2026-04-30 12:21 | 2.26735 | 102.29916 | 10727 ft | 331 kts | 295° |
| 2026-04-30 12:22 | 2.27638 | 102.27780 | 10362 ft | 329 kts | 295° |
| 2026-04-30 12:22 | 2.28513 | 102.25710 | 10093 ft | 323 kts | 295° |
| 2026-04-30 12:22 | 2.29372 | 102.23680 | 9729 ft | 311 kts | 295° |
| 2026-04-30 12:22 | 2.30214 | 102.21695 | 9373 ft | 309 kts | 295° |
| 2026-04-30 12:23 | 2.31061 | 102.19707 | 9012 ft | 308 kts | 295° |
| 2026-04-30 12:23 | 2.31884 | 102.17767 | 8686 ft | 306 kts | 295° |
| 2026-04-30 12:23 | 2.32713 | 102.15807 | 8351 ft | 304 kts | 295° |
| 2026-04-30 12:23 | 2.33529 | 102.13873 | 7808 ft | 300 kts | 295° |
| 2026-04-30 12:24 | 2.34333 | 102.11974 | 7219 ft | 297 kts | 295° |
| 2026-04-30 12:24 | 2.35142 | 102.10061 | 6584 ft | 297 kts | 295° |
| 2026-04-30 12:24 | 2.35922 | 102.08214 | 6319 ft | 282 kts | 295° |
| 2026-04-30 12:24 | 2.36665 | 102.06456 | 6171 ft | 264 kts | 295° |
| 2026-04-30 12:25 | 2.37349 | 102.04838 | 6038 ft | 246 kts | 295° |
| 2026-04-30 12:25 | 2.37966 | 102.03288 | 5789 ft | 235 kts | 293° |
| 2026-04-30 12:25 | 2.38528 | 102.01735 | 5328 ft | 235 kts | 292° |
| 2026-04-30 12:26 | 2.38967 | 102.00479 | 5005 ft | 232 kts | 291° |
| 2026-04-30 12:26 | 2.39494 | 101.98958 | 4593 ft | 230 kts | 291° |
| 2026-04-30 12:26 | 2.40016 | 101.97450 | 4179 ft | 227 kts | 291° |
| 2026-04-30 12:26 | 2.40525 | 101.95987 | 3800 ft | 224 kts | 291° |
| 2026-04-30 12:27 | 2.41038 | 101.94526 | 3421 ft | 220 kts | 291° |
| 2026-04-30 12:27 | 2.41538 | 101.93110 | 3158 ft | 210 kts | 291° |
| 2026-04-30 12:27 | 2.42013 | 101.91768 | 2826 ft | 204 kts | 291° |
| 2026-04-30 12:27 | 2.42565 | 101.90463 | 2574 ft | 201 kts | 303° |
| 2026-04-30 12:28 | 2.43421 | 101.89352 | 2529 ft | 201 kts | 312° |
| 2026-04-30 12:28 | 2.44336 | 101.88285 | 2532 ft | 202 kts | 312° |
| 2026-04-30 12:28 | 2.45237 | 101.87233 | 2533 ft | 202 kts | 315° |
| 2026-04-30 12:28 | 2.46277 | 101.86291 | 2529 ft | 201 kts | 324° |
| 2026-04-30 12:29 | 2.47407 | 101.85472 | 2527 ft | 199 kts | 327° |
| 2026-04-30 12:29 | 2.48544 | 101.84698 | 2529 ft | 200 kts | 328° |
| 2026-04-30 12:29 | 2.49696 | 101.83924 | 2526 ft | 200 kts | 329° |
| 2026-04-30 12:29 | 2.50853 | 101.83148 | 2524 ft | 199 kts | 328° |
| 2026-04-30 12:30 | 2.52000 | 101.82379 | 2523 ft | 199 kts | 328° |
| 2026-04-30 12:30 | 2.53153 | 101.81607 | 2520 ft | 199 kts | 328° |
| 2026-04-30 12:30 | 2.54311 | 101.80831 | 2516 ft | 199 kts | 328° |
| 2026-04-30 12:30 | 2.55469 | 101.80054 | 2515 ft | 199 kts | 328° |
| 2026-04-30 12:31 | 2.56623 | 101.79281 | 2513 ft | 200 kts | 329° |
| 2026-04-30 12:31 | 2.57739 | 101.78532 | 2504 ft | 185 kts | 328° |
| 2026-04-30 12:31 | 2.58775 | 101.77837 | 2511 ft | 178 kts | 329° |
| 2026-04-30 12:31 | 2.59799 | 101.77151 | 2429 ft | 175 kts | 328° |
| 2026-04-30 12:32 | 2.60805 | 101.76477 | 2249 ft | 174 kts | 329° |
| 2026-04-30 12:32 | 2.61814 | 101.75801 | 2031 ft | 173 kts | 328° |
| 2026-04-30 12:32 | 2.62771 | 101.75159 | 1841 ft | 159 kts | 327° |
| 2026-04-30 12:32 | 2.63679 | 101.74550 | 1632 ft | 154 kts | 328° |
| 2026-04-30 12:33 | 2.64561 | 101.73959 | 1430 ft | 151 kts | 327° |
| 2026-04-30 12:33 | 2.65421 | 101.73383 | 1241 ft | 150 kts | 327° |
| 2026-04-30 12:33 | 2.66288 | 101.72801 | 1050 ft | 149 kts | 327° |
| 2026-04-30 12:33 | 2.67152 | 101.72222 | 870 ft | 148 kts | 327° |
| 2026-04-30 12:34 | 2.68006 | 101.71653 | 711 ft | 147 kts | 327° |
| 2026-04-30 12:34 | 2.68843 | 101.71094 | 543 ft | 145 kts | 326° |
| 2026-04-30 12:34 | 2.69670 | 101.70520 | 353 ft | 143 kts | 326° |
| 2026-04-30 12:34 | 2.70491 | 101.69983 | 177 ft | 142 kts | 327° |
| 2026-04-30 12:35 | 2.71306 | 101.69442 | 40 ft | 133 kts | 324° |
| 2026-04-30 12:35 | 2.71850 | 101.69072 | 39 ft | 48 kts | 326° |
| 2026-04-30 12:35 | 2.72095 | 101.68909 | 38 ft | 41 kts | 327° |
| 2026-04-30 12:35 | 2.72307 | 101.68766 | 37 ft | 35 kts | 326° |
| 2026-04-30 12:36 | 2.72453 | 101.68675 | 37 ft | 22 kts | 333° |
| 2026-04-30 12:36 | 2.72599 | 101.68632 | 38 ft | 22 kts | 352° |
| 2026-04-30 12:36 | 2.72691 | 101.68620 | 39 ft | 10 kts | 353° |
| 2026-04-30 12:36 | 2.72766 | 101.68611 | 38 ft | 12 kts | 353° |
| 2026-04-30 12:37 | 2.72857 | 101.68596 | 36 ft | 15 kts | 344° |
| 2026-04-30 12:37 | 2.72919 | 101.68564 | 39 ft | 4 kts | 325° |
| 2026-04-30 12:37 | 2.72947 | 101.68545 | 39 ft | 6 kts | 326° |
| 2026-04-30 12:37 | 2.72989 | 101.68517 | 39 ft | 8 kts | 326° |
| 2026-04-30 12:38 | 2.73043 | 101.68480 | 39 ft | 11 kts | 326° |
| 2026-04-30 12:38 | 2.73115 | 101.68432 | 38 ft | 14 kts | 326° |
| 2026-04-30 12:38 | 2.73202 | 101.68373 | 37 ft | 16 kts | 325° |
| 2026-04-30 12:38 | 2.73305 | 101.68306 | 37 ft | 18 kts | 331° |
| 2026-04-30 12:39 | 2.73395 | 101.68244 | 38 ft | 16 kts | 325° |
| 2026-04-30 12:39 | 2.73488 | 101.68182 | 36 ft | 15 kts | 327° |
| 2026-04-30 12:39 | 2.73574 | 101.68125 | 38 ft | 14 kts | 326° |
| 2026-04-30 12:39 | 2.73643 | 101.68088 | 38 ft | 10 kts | 5° |
| 2026-04-30 12:40 | 2.73692 | 101.68138 | 40 ft | 10 kts | 58° |
| 2026-04-30 12:40 | 2.73734 | 101.68198 | 41 ft | 11 kts | 56° |
| 2026-04-30 12:40 | 2.73778 | 101.68265 | 42 ft | 13 kts | 56° |
| 2026-04-30 12:40 | 2.73820 | 101.68326 | 42 ft | 1 kts | 56° |
| 2026-04-30 12:41 | 2.73834 | 101.68347 | 42 ft | 8 kts | 56° |
| 2026-04-30 12:41 | 2.73877 | 101.68412 | 42 ft | 13 kts | 57° |
| 2026-04-30 12:41 | 2.73912 | 101.68463 | 42 ft | 0 kts | 51° |
| 2026-04-30 12:41 | 2.73926 | 101.68462 | 42 ft | 4 kts | 348° |
| 2026-04-30 12:42 | 2.73958 | 101.68443 | 42 ft | 7 kts | 324° |
| 2026-04-30 12:42 | 2.73981 | 101.68427 | 42 ft | 0 kts | 326° |
| 2026-04-30 12:42 | 2.73990 | 101.68421 | 42 ft | 3 kts | 326° |
| 2026-04-30 12:42 | 2.73993 | 101.68419 | 42 ft | 0 kts | 326° |
| 2026-04-30 12:43 | 2.73994 | 101.68419 | 42 ft | 0 kts | 326° |